createdAt,value
2019-05-18T00:00:49.482Z,11.77
2019-05-18T00:01:49.477Z,11.67
2019-05-18T00:02:49.471Z,11.64
2019-05-18T00:03:49.463Z,11.64
2019-05-18T00:04:49.460Z,11.72
2019-05-18T00:05:49.455Z,11.63
2019-05-18T00:06:49.446Z,11.66
2019-05-18T00:07:49.436Z,11.63
2019-05-18T00:08:49.426Z,11.56
2019-05-18T00:09:49.420Z,11.64
2019-05-18T00:10:49.413Z,11.62
2019-05-18T00:11:49.401Z,11.62
2019-05-18T00:12:49.400Z,11.60
2019-05-18T00:13:49.391Z,11.64
2019-05-18T00:14:49.380Z,11.66
2019-05-18T00:15:49.372Z,11.56
2019-05-18T00:16:49.367Z,11.60
2019-05-18T00:17:49.362Z,11.56
2019-05-18T00:18:49.355Z,11.59
2019-05-18T00:19:49.350Z,11.54
2019-05-18T00:20:49.337Z,11.60
2019-05-18T00:21:49.328Z,11.62
2019-05-18T00:22:49.321Z,11.66
2019-05-18T00:23:49.317Z,11.60
2019-05-18T00:24:49.311Z,11.69
2019-05-18T00:25:49.302Z,11.67
2019-05-18T00:26:49.292Z,11.72
2019-05-18T00:27:49.285Z,11.64
2019-05-18T00:28:49.274Z,11.74
2019-05-18T00:29:49.267Z,11.74
2019-05-18T00:30:49.262Z,11.69
2019-05-18T00:31:49.265Z,11.74
2019-05-18T00:32:49.243Z,11.70
2019-05-18T00:33:49.240Z,11.67
2019-05-18T00:34:49.229Z,11.57
2019-05-18T00:35:49.228Z,11.59
2019-05-18T00:36:49.218Z,11.59
2019-05-18T00:37:49.212Z,11.57
2019-05-18T00:38:49.202Z,11.54
2019-05-18T00:39:49.193Z,11.56
2019-05-18T00:40:49.187Z,11.53
2019-05-18T00:41:49.173Z,11.53
2019-05-18T00:42:49.169Z,11.49
2019-05-18T00:43:49.163Z,11.48
2019-05-18T00:44:49.157Z,11.46
2019-05-18T00:45:49.152Z,11.44
2019-05-18T00:46:49.140Z,11.31
2019-05-18T00:47:49.134Z,11.33
2019-05-18T00:48:49.128Z,11.31
2019-05-18T00:49:49.121Z,11.26
2019-05-18T00:50:49.112Z,11.24
2019-05-18T00:51:49.105Z,11.27
2019-05-18T00:52:49.089Z,11.30
2019-05-18T00:53:49.083Z,11.30
2019-05-18T00:54:49.076Z,11.27
2019-05-18T00:55:49.067Z,11.20
2019-05-18T00:56:49.064Z,11.27
2019-05-18T00:57:49.056Z,11.31
2019-05-18T00:58:49.051Z,11.39
2019-05-18T00:59:49.043Z,11.28
2019-05-18T01:00:49.037Z,11.36
2019-05-18T01:01:49.022Z,11.33
2019-05-18T01:02:49.020Z,11.36
2019-05-18T01:03:49.013Z,11.38
2019-05-18T01:04:49.001Z,11.48
2019-05-18T01:05:48.996Z,11.51
2019-05-18T01:06:48.983Z,11.45
2019-05-18T01:07:48.975Z,11.51
2019-05-18T01:08:48.971Z,11.56
2019-05-18T01:09:48.962Z,11.48
2019-05-18T01:10:48.961Z,11.49
2019-05-18T01:11:48.950Z,11.48
2019-05-18T01:12:48.946Z,11.46
2019-05-18T01:13:48.929Z,11.42
2019-05-18T01:14:48.923Z,11.48
2019-05-18T01:15:48.917Z,11.41
2019-05-18T01:16:48.911Z,11.41
2019-05-18T01:17:57.057Z,11.41
2019-05-18T01:18:48.893Z,11.31
2019-05-18T01:19:48.889Z,11.27
2019-05-18T01:20:48.880Z,11.28
2019-05-18T01:21:48.876Z,11.30
2019-05-18T01:22:48.865Z,11.31
2019-05-18T01:23:48.855Z,11.33
2019-05-18T01:24:48.847Z,11.31
2019-05-18T01:25:48.837Z,11.35
2019-05-18T01:26:48.828Z,11.35
2019-05-18T01:27:48.822Z,11.33
2019-05-18T01:28:48.816Z,11.36
2019-05-18T01:29:48.808Z,11.33
2019-05-18T01:30:48.803Z,11.39
2019-05-18T01:31:48.795Z,11.33
2019-05-18T01:32:48.786Z,11.39
2019-05-18T01:33:48.775Z,11.42
2019-05-18T01:34:48.774Z,11.48
2019-05-18T01:35:48.764Z,11.53
2019-05-18T01:36:48.754Z,11.49
2019-05-18T01:37:48.746Z,11.56
2019-05-18T01:38:48.735Z,11.59
2019-05-18T01:39:48.728Z,11.62
2019-05-18T01:40:48.727Z,11.66
2019-05-18T01:41:48.719Z,11.70
2019-05-18T01:42:48.710Z,11.72
2019-05-18T01:43:48.702Z,11.75
2019-05-18T01:44:48.688Z,11.77
2019-05-18T01:45:48.682Z,11.79
2019-05-18T01:46:48.680Z,11.84
2019-05-18T01:47:48.669Z,11.90
2019-05-18T01:48:48.667Z,11.90
2019-05-18T01:49:48.686Z,12.03
2019-05-18T01:50:48.649Z,12.08
2019-05-18T01:51:48.642Z,12.05
2019-05-18T01:52:48.647Z,12.08
2019-05-18T01:53:48.628Z,12.07
2019-05-18T01:54:48.619Z,12.08
2019-05-18T01:55:48.617Z,12.11
2019-05-18T01:56:48.606Z,12.15
2019-05-18T01:57:48.594Z,12.15
2019-05-18T01:58:48.587Z,12.16
2019-05-18T01:59:48.577Z,12.08
2019-05-18T02:00:48.574Z,12.21
2019-05-18T02:01:48.568Z,12.16
2019-05-18T02:02:48.562Z,12.22
2019-05-18T02:03:48.555Z,12.25
2019-05-18T02:04:48.543Z,12.22
2019-05-18T02:05:48.535Z,12.19
2019-05-18T02:06:48.539Z,12.21
2019-05-18T02:07:48.535Z,12.25
2019-05-18T02:08:48.512Z,12.23
2019-05-18T02:09:48.509Z,12.25
2019-05-18T02:10:48.497Z,12.22
2019-05-18T02:11:48.489Z,12.25
2019-05-18T02:12:48.486Z,12.22
2019-05-18T02:13:48.478Z,12.23
2019-05-18T02:14:48.469Z,12.25
2019-05-18T02:15:48.464Z,12.33
2019-05-18T02:16:48.450Z,12.30
2019-05-18T02:17:48.443Z,12.38
2019-05-18T02:18:48.443Z,12.34
2019-05-18T02:19:48.431Z,12.37
2019-05-18T02:20:48.428Z,12.48
2019-05-18T02:21:48.419Z,12.51
2019-05-18T02:22:48.411Z,12.55
2019-05-18T02:23:48.400Z,12.54
2019-05-18T02:24:48.398Z,12.48
2019-05-18T02:25:48.391Z,12.51
2019-05-18T02:26:48.382Z,12.46
2019-05-18T02:27:48.373Z,12.59
2019-05-18T02:28:48.361Z,12.56
2019-05-18T02:29:48.354Z,12.52
2019-05-18T02:30:48.350Z,12.58
2019-05-18T02:31:48.340Z,12.61
2019-05-18T02:32:48.358Z,12.59
2019-05-18T02:33:48.329Z,12.58
2019-05-18T02:34:48.326Z,12.73
2019-05-18T02:35:48.321Z,12.74
2019-05-18T02:36:48.307Z,12.67
2019-05-18T02:37:48.304Z,12.62
2019-05-18T02:38:48.299Z,12.77
2019-05-18T02:39:48.293Z,12.79
2019-05-18T02:40:48.286Z,12.79
2019-05-18T02:41:48.273Z,12.70
2019-05-18T02:42:48.261Z,12.77
2019-05-18T02:43:48.254Z,12.70
2019-05-18T02:44:48.253Z,12.74
2019-05-18T02:45:48.248Z,12.81
2019-05-18T02:46:48.241Z,12.73
2019-05-18T02:47:48.235Z,12.74
2019-05-18T02:48:50.478Z,12.74
2019-05-18T02:49:48.217Z,12.67
2019-05-18T02:50:48.207Z,12.63
2019-05-18T02:51:48.198Z,12.58
2019-05-18T02:52:48.199Z,12.71
2019-05-18T02:53:48.192Z,12.62
2019-05-18T02:54:48.186Z,12.70
2019-05-18T02:55:48.170Z,12.61
2019-05-18T02:56:48.168Z,12.62
2019-05-18T02:57:48.161Z,12.63
2019-05-18T02:58:48.154Z,12.52
2019-05-18T02:59:48.149Z,12.51
2019-05-18T03:00:48.139Z,12.51
2019-05-18T03:01:48.133Z,12.52
2019-05-18T03:02:48.123Z,12.52
2019-05-18T03:03:48.117Z,12.43
2019-05-18T03:04:48.116Z,12.48
2019-05-18T03:05:48.111Z,12.46
2019-05-18T03:06:48.098Z,12.48
2019-05-18T03:07:48.088Z,12.37
2019-05-18T03:08:48.083Z,12.43
2019-05-18T03:09:48.072Z,12.40
2019-05-18T03:10:48.073Z,12.36
2019-05-18T03:11:48.063Z,12.31
2019-05-18T03:12:48.051Z,12.33
2019-05-18T03:13:48.045Z,12.31
2019-05-18T03:14:48.040Z,12.37
2019-05-18T03:15:48.034Z,12.30
2019-05-18T03:16:48.045Z,12.36
2019-05-18T03:17:48.020Z,12.23
2019-05-18T03:19:06.286Z,12.25
2019-05-18T03:19:48.007Z,12.23
2019-05-18T03:20:47.995Z,12.18
2019-05-18T03:21:47.991Z,12.19
2019-05-18T03:22:47.984Z,12.16
2019-05-18T03:23:47.969Z,12.12
2019-05-18T03:24:47.968Z,12.13
2019-05-18T03:25:47.960Z,12.18
2019-05-18T03:26:47.949Z,12.11
2019-05-18T03:27:47.940Z,12.13
2019-05-18T03:28:47.937Z,12.13
2019-05-18T03:29:47.930Z,12.08
2019-05-18T03:30:47.950Z,12.08
2019-05-18T03:31:47.918Z,12.00
2019-05-18T03:32:47.912Z,12.08
2019-05-18T03:33:47.900Z,12.07
2019-05-18T03:34:47.900Z,12.01
2019-05-18T03:35:47.886Z,11.93
2019-05-18T03:36:47.886Z,11.93
2019-05-18T03:37:47.878Z,11.98
2019-05-18T03:38:47.864Z,11.98
2019-05-18T03:39:47.857Z,11.87
2019-05-18T03:40:47.847Z,11.88
2019-05-18T03:41:47.864Z,11.82
2019-05-18T03:42:47.834Z,11.77
2019-05-18T03:43:47.833Z,11.72
2019-05-18T03:44:47.816Z,11.70
2019-05-18T03:45:47.818Z,11.67
2019-05-18T03:46:47.804Z,11.75
2019-05-18T03:47:47.794Z,11.74
2019-05-18T03:48:47.790Z,11.74
2019-05-18T03:49:47.785Z,11.69
2019-05-18T03:50:47.773Z,11.62
2019-05-18T03:51:47.765Z,11.67
2019-05-18T03:52:47.754Z,11.67
2019-05-18T03:53:47.749Z,11.59
2019-05-18T03:54:47.743Z,11.69
2019-05-18T03:55:47.740Z,11.60
2019-05-18T03:56:47.737Z,11.67
2019-05-18T03:57:47.722Z,11.70
2019-05-18T03:58:47.714Z,11.75
2019-05-18T03:59:47.704Z,11.67
2019-05-18T04:00:47.706Z,11.64
2019-05-18T04:01:47.691Z,11.60
2019-05-18T04:02:47.684Z,11.67
2019-05-18T04:03:47.676Z,11.67
2019-05-18T04:04:47.664Z,11.64
2019-05-18T04:05:47.655Z,11.54
2019-05-18T04:06:47.648Z,11.63
2019-05-18T04:07:47.645Z,11.62
2019-05-18T04:08:47.649Z,11.62
2019-05-18T04:09:47.629Z,11.59
2019-05-18T04:10:47.624Z,11.67
2019-05-18T04:11:47.617Z,11.67
2019-05-18T04:12:47.605Z,11.66
2019-05-18T04:13:47.600Z,11.62
2019-05-18T04:14:47.603Z,11.64
2019-05-18T04:15:47.595Z,11.74
2019-05-18T04:16:47.591Z,11.77
2019-05-18T04:17:47.569Z,11.74
2019-05-18T04:18:47.558Z,11.77
2019-05-18T04:19:47.765Z,11.84
2019-05-18T04:20:47.547Z,11.84
2019-05-18T04:21:47.541Z,11.90
2019-05-18T04:22:47.534Z,11.97
2019-05-18T04:23:47.532Z,12.05
2019-05-18T04:24:47.514Z,12.05
2019-05-18T04:25:47.507Z,12.11
2019-05-18T04:26:47.502Z,12.23
2019-05-18T04:27:47.493Z,12.23
2019-05-18T04:28:47.491Z,12.31
2019-05-18T04:29:47.490Z,12.41
2019-05-18T04:30:47.473Z,12.51
2019-05-18T04:31:47.466Z,12.48
2019-05-18T04:32:47.467Z,12.61
2019-05-18T04:33:47.455Z,12.67
2019-05-18T04:34:47.448Z,12.74
2019-05-18T04:35:47.442Z,12.76
2019-05-18T04:36:47.428Z,12.76
2019-05-18T04:37:47.430Z,12.87
2019-05-18T04:38:47.416Z,12.85
2019-05-18T04:39:47.407Z,12.92
2019-05-18T04:40:47.406Z,12.94
2019-05-18T04:41:47.400Z,12.94
2019-05-18T04:42:47.400Z,12.94
2019-05-18T04:43:47.390Z,13.10
2019-05-18T04:44:47.378Z,13.14
2019-05-18T04:45:47.373Z,13.10
2019-05-18T04:46:47.378Z,13.24
2019-05-18T04:47:48.701Z,13.29
2019-05-18T04:48:47.351Z,13.29
2019-05-18T04:50:03.914Z,13.28
2019-05-18T04:50:47.338Z,13.36
2019-05-18T04:51:47.330Z,13.32
2019-05-18T04:52:47.329Z,13.29
2019-05-18T04:53:47.320Z,13.46
2019-05-18T04:54:47.324Z,13.46
2019-05-18T04:55:47.310Z,13.51
2019-05-18T04:56:47.304Z,13.61
2019-05-18T04:57:47.295Z,13.59
2019-05-18T04:58:47.286Z,13.62
2019-05-18T04:59:47.277Z,13.48
2019-05-18T05:00:47.279Z,13.50
2019-05-18T05:01:47.274Z,13.48
2019-05-18T05:02:47.260Z,13.57
2019-05-18T05:03:47.253Z,13.46
2019-05-18T05:04:47.251Z,13.50
2019-05-18T05:05:47.247Z,13.47
2019-05-18T05:06:47.241Z,13.46
2019-05-18T05:07:47.276Z,13.48
2019-05-18T05:08:47.226Z,13.51
2019-05-18T05:09:47.218Z,13.53
2019-05-18T05:10:47.215Z,13.57
2019-05-18T05:11:47.205Z,13.50
2019-05-18T05:12:47.205Z,13.53
2019-05-18T05:13:47.196Z,13.54
2019-05-18T05:14:47.190Z,13.53
2019-05-18T05:15:47.184Z,13.51
2019-05-18T05:16:47.171Z,13.61
2019-05-18T05:17:47.167Z,13.48
2019-05-18T05:18:47.170Z,13.59
2019-05-18T05:19:47.159Z,13.63
2019-05-18T05:20:47.147Z,13.61
2019-05-18T05:21:47.143Z,13.63
2019-05-18T05:22:47.137Z,13.66
2019-05-18T05:23:47.131Z,13.69
2019-05-18T05:24:47.134Z,13.63
2019-05-18T05:25:47.123Z,13.73
2019-05-18T05:26:47.116Z,13.75
2019-05-18T05:27:47.109Z,13.71
2019-05-18T05:28:47.101Z,13.76
2019-05-18T05:29:47.094Z,13.73
2019-05-18T05:30:47.085Z,13.72
2019-05-18T05:31:47.077Z,13.72
2019-05-18T05:32:47.079Z,13.79
2019-05-18T05:33:47.072Z,13.73
2019-05-18T05:34:47.062Z,13.72
2019-05-18T05:35:47.053Z,13.75
2019-05-18T05:36:47.055Z,13.68
2019-05-18T05:37:47.045Z,13.75
2019-05-18T05:38:47.043Z,13.75
2019-05-18T05:39:47.038Z,13.73
2019-05-18T05:40:47.026Z,13.73
2019-05-18T05:41:47.025Z,13.68
2019-05-18T05:42:47.018Z,13.68
2019-05-18T05:43:47.010Z,13.69
2019-05-18T05:44:47.005Z,13.65
2019-05-18T05:45:47.000Z,13.61
2019-05-18T05:46:46.991Z,13.51
2019-05-18T05:47:46.984Z,13.47
2019-05-18T05:48:46.977Z,13.50
2019-05-18T05:49:46.968Z,13.50
2019-05-18T05:50:46.967Z,13.54
2019-05-18T05:51:46.967Z,13.55
2019-05-18T05:52:46.951Z,13.57
2019-05-18T05:53:46.945Z,13.50
2019-05-18T05:54:46.942Z,13.48
2019-05-18T05:55:46.935Z,13.53
2019-05-18T05:56:46.935Z,13.51
2019-05-18T05:57:46.926Z,13.55
2019-05-18T05:58:46.918Z,13.66
2019-05-18T05:59:46.913Z,13.68
2019-05-18T06:00:46.901Z,13.66
2019-05-18T06:01:46.900Z,13.62
2019-05-18T06:02:46.893Z,13.63
2019-05-18T06:03:46.888Z,13.68
2019-05-18T06:04:46.895Z,13.63
2019-05-18T06:05:46.881Z,13.65
2019-05-18T06:06:46.868Z,13.71
2019-05-18T06:07:46.862Z,13.72
2019-05-18T06:08:46.859Z,13.84
2019-05-18T06:09:46.855Z,13.80
2019-05-18T06:10:46.849Z,13.84
2019-05-18T06:11:46.839Z,13.88
2019-05-18T06:12:46.831Z,13.88
2019-05-18T06:13:46.822Z,13.98
2019-05-18T06:14:46.817Z,13.99
2019-05-18T06:15:46.861Z,14.06
2019-05-18T06:16:46.809Z,14.06
2019-05-18T06:17:46.802Z,14.17
2019-05-18T06:18:46.814Z,14.17
2019-05-18T06:19:46.791Z,14.17
2019-05-18T06:20:51.331Z,14.29
2019-05-18T06:21:46.781Z,14.36
2019-05-18T06:22:46.781Z,14.45
2019-05-18T06:23:46.771Z,14.59
2019-05-18T06:24:46.761Z,14.64
2019-05-18T06:25:46.753Z,14.60
2019-05-18T06:26:46.745Z,14.66
2019-05-18T06:27:46.740Z,14.74
2019-05-18T06:28:46.738Z,14.86
2019-05-18T06:29:46.735Z,15.07
2019-05-18T06:30:46.729Z,15.18
2019-05-18T06:31:46.721Z,15.23
2019-05-18T06:32:46.712Z,15.30
2019-05-18T06:33:46.708Z,15.33
2019-05-18T06:34:46.704Z,15.41
2019-05-18T06:35:46.703Z,15.44
2019-05-18T06:36:46.701Z,15.52
2019-05-18T06:37:46.692Z,15.59
2019-05-18T06:38:46.684Z,15.64
2019-05-18T06:39:46.677Z,15.76
2019-05-18T06:40:46.675Z,15.76
2019-05-18T06:41:46.674Z,15.88
2019-05-18T06:42:46.667Z,15.95
2019-05-18T06:43:46.658Z,15.99
2019-05-18T06:44:46.652Z,16.23
2019-05-18T06:45:46.645Z,16.34
2019-05-18T06:46:46.639Z,16.47
2019-05-18T06:47:48.502Z,16.62
2019-05-18T06:48:46.635Z,16.65
2019-05-18T06:49:46.631Z,16.82
2019-05-18T06:50:46.631Z,16.92
2019-05-18T06:51:46.622Z,16.99
2019-05-18T06:52:46.627Z,17.14
2019-05-18T06:53:46.612Z,17.27
2019-05-18T06:54:46.616Z,17.21
2019-05-18T06:55:46.606Z,17.24
2019-05-18T06:56:46.598Z,17.27
2019-05-18T06:57:46.596Z,17.33
2019-05-18T06:58:46.589Z,17.30
2019-05-18T06:59:46.583Z,17.33
2019-05-18T07:00:46.584Z,17.25
2019-05-18T07:01:46.586Z,17.36
2019-05-18T07:02:46.581Z,17.54
2019-05-18T07:03:46.575Z,17.66
2019-05-18T07:04:46.568Z,17.80
2019-05-18T07:05:46.565Z,18.13
2019-05-18T07:06:46.562Z,18.32
2019-05-18T07:07:46.555Z,18.32
2019-05-18T07:08:46.560Z,18.47
2019-05-18T07:09:46.557Z,18.66
2019-05-18T07:10:46.548Z,18.87
2019-05-18T07:11:46.547Z,18.99
2019-05-18T07:12:46.548Z,19.25
2019-05-18T07:13:46.574Z,19.30
2019-05-18T07:14:46.548Z,19.49
2019-05-18T07:15:46.553Z,19.52
2019-05-18T07:16:46.538Z,19.76
2019-05-18T07:17:46.536Z,19.98
2019-05-18T07:18:46.538Z,19.94
2019-05-18T07:19:46.533Z,20.23
2019-05-18T07:20:46.534Z,20.44
2019-05-18T07:21:46.534Z,20.51
2019-05-18T07:22:46.529Z,20.76
2019-05-18T07:23:46.528Z,20.82
2019-05-18T07:24:46.522Z,21.03
2019-05-18T07:25:46.523Z,21.05
2019-05-18T07:26:46.527Z,21.13
2019-05-18T07:27:46.524Z,21.24
2019-05-18T07:28:46.520Z,21.31
2019-05-18T07:29:46.518Z,21.42
2019-05-18T07:30:46.527Z,21.64
2019-05-18T07:31:46.526Z,21.85
2019-05-18T07:32:46.526Z,22.14
2019-05-18T07:33:46.525Z,22.66
2019-05-18T07:34:46.525Z,23.71
2019-05-18T07:35:46.524Z,24.26
2019-05-18T07:36:46.520Z,24.64
2019-05-18T07:37:46.522Z,25.04
2019-05-18T07:38:46.520Z,25.34
2019-05-18T07:39:46.521Z,25.63
2019-05-18T07:40:46.525Z,25.98
2019-05-18T07:41:47.318Z,26.79
2019-05-18T07:42:46.529Z,27.09
2019-05-18T07:43:46.527Z,27.30
2019-05-18T07:44:46.537Z,27.48
2019-05-18T07:45:46.539Z,28.03
2019-05-18T07:46:46.544Z,28.62
2019-05-18T07:47:46.547Z,28.80
2019-05-18T07:48:46.547Z,28.98
2019-05-18T07:49:46.599Z,28.92
2019-05-18T07:50:46.556Z,28.92
2019-05-18T07:51:46.561Z,28.88
2019-05-18T07:52:46.570Z,29.23
2019-05-18T07:53:46.574Z,29.44
2019-05-18T07:54:46.580Z,29.64
2019-05-18T07:55:46.583Z,30.01
2019-05-18T07:56:46.583Z,30.48
2019-05-18T07:57:46.589Z,30.59
2019-05-18T07:58:46.598Z,30.79
2019-05-18T07:59:46.605Z,30.64
2019-05-18T08:00:46.606Z,30.56
2019-05-18T08:01:46.612Z,30.22
2019-05-18T08:02:46.622Z,29.95
2019-05-18T08:03:46.628Z,29.71
2019-05-18T08:04:46.638Z,29.54
2019-05-18T08:05:46.646Z,29.23
2019-05-18T08:06:46.651Z,29.05
2019-05-18T08:07:46.654Z,28.88
2019-05-18T08:08:46.658Z,28.80
2019-05-18T08:09:46.674Z,28.45
2019-05-18T08:10:46.674Z,27.95
2019-05-18T08:11:46.681Z,27.96
2019-05-18T08:12:46.695Z,28.02
2019-05-18T08:13:46.697Z,28.36
2019-05-18T08:14:46.699Z,28.60
2019-05-18T08:15:46.702Z,28.97
2019-05-18T08:16:46.713Z,28.89
2019-05-18T08:17:46.719Z,29.00
2019-05-18T08:18:46.723Z,28.85
2019-05-18T08:19:46.730Z,28.69
2019-05-18T08:20:46.733Z,28.58
2019-05-18T08:21:53.399Z,28.58
2019-05-18T08:22:46.743Z,28.60
2019-05-18T08:23:46.800Z,28.70
2019-05-18T08:24:46.759Z,28.69
2019-05-18T08:25:46.767Z,28.87
2019-05-18T08:26:46.775Z,29.51
2019-05-18T08:27:46.784Z,30.51
2019-05-18T08:28:46.788Z,31.53
2019-05-18T08:29:46.791Z,32.40
2019-05-18T08:30:46.800Z,33.05
2019-05-18T08:31:46.807Z,33.65
2019-05-18T08:32:46.812Z,34.38
2019-05-18T08:33:46.817Z,34.95
2019-05-18T08:34:46.823Z,35.44
2019-05-18T08:35:46.833Z,35.89
2019-05-18T08:36:46.845Z,36.46
2019-05-18T08:37:46.854Z,36.19
2019-05-18T08:38:46.865Z,36.89
2019-05-18T08:39:46.877Z,37.45
2019-05-18T08:40:46.883Z,37.63
2019-05-18T08:41:48.884Z,37.60
2019-05-18T08:42:46.908Z,37.40
2019-05-18T08:43:46.919Z,37.09
2019-05-18T08:44:46.935Z,36.84
2019-05-18T08:45:46.947Z,36.71
2019-05-18T08:46:46.957Z,36.43
2019-05-18T08:47:46.975Z,35.96
2019-05-18T08:48:46.986Z,35.80
2019-05-18T08:49:46.999Z,35.69
2019-05-18T08:50:47.010Z,35.27
2019-05-18T08:51:47.019Z,35.18
2019-05-18T08:52:47.035Z,35.09
2019-05-18T08:53:47.069Z,34.93
2019-05-18T08:54:47.062Z,34.64
2019-05-18T08:55:47.063Z,34.21
2019-05-18T08:56:47.088Z,34.08
2019-05-18T08:57:47.114Z,34.24
2019-05-18T08:58:47.107Z,34.31
2019-05-18T08:59:47.117Z,34.50
2019-05-18T09:00:47.126Z,34.56
2019-05-18T09:01:47.136Z,34.87
2019-05-18T09:02:47.156Z,35.07
2019-05-18T09:03:47.164Z,35.07
2019-05-18T09:04:47.172Z,34.83
2019-05-18T09:05:47.184Z,34.63
2019-05-18T09:06:47.194Z,34.48
2019-05-18T09:07:47.203Z,34.33
2019-05-18T09:08:47.220Z,34.30
2019-05-18T09:09:47.233Z,33.87
2019-05-18T09:10:47.246Z,34.43
2019-05-18T09:11:47.256Z,34.87
2019-05-18T09:12:47.294Z,35.18
2019-05-18T09:13:47.274Z,35.13
2019-05-18T09:14:47.284Z,35.24
2019-05-18T09:15:47.295Z,35.73
2019-05-18T09:16:47.310Z,36.34
2019-05-18T09:17:47.323Z,36.84
2019-05-18T09:18:47.331Z,37.24
2019-05-18T09:19:47.341Z,37.82
2019-05-18T09:20:47.359Z,37.78
2019-05-18T09:21:47.371Z,38.06
2019-05-18T09:22:47.387Z,38.44
2019-05-18T09:23:47.399Z,38.98
2019-05-18T09:24:47.408Z,39.31
2019-05-18T09:25:47.427Z,39.82
2019-05-18T09:26:47.437Z,40.04
2019-05-18T09:27:47.493Z,40.04
2019-05-18T09:28:47.470Z,40.36
2019-05-18T09:29:47.486Z,40.18
2019-05-18T09:30:47.499Z,40.46
2019-05-18T09:31:47.518Z,40.86
2019-05-18T09:32:47.525Z,40.85
2019-05-18T09:33:47.545Z,41.10
2019-05-18T09:34:47.561Z,41.31
2019-05-18T09:35:47.579Z,41.33
2019-05-18T09:36:47.593Z,40.90
2019-05-18T09:37:47.609Z,40.68
2019-05-18T09:38:47.652Z,41.21
2019-05-18T09:39:47.647Z,41.42
2019-05-18T09:40:47.670Z,41.60
2019-05-18T09:41:47.688Z,42.15
2019-05-18T09:42:47.708Z,42.45
2019-05-18T09:43:47.724Z,42.58
2019-05-18T09:44:47.746Z,42.49
2019-05-18T09:45:47.761Z,42.79
2019-05-18T09:46:47.779Z,43.18
2019-05-18T09:47:47.797Z,42.95
2019-05-18T09:48:47.821Z,42.49
2019-05-18T09:49:47.840Z,41.96
2019-05-18T09:50:47.858Z,40.86
2019-05-18T09:51:47.876Z,40.46
2019-05-18T09:52:47.902Z,40.63
2019-05-18T09:53:51.738Z,39.87
2019-05-18T09:54:47.942Z,39.01
2019-05-18T09:55:47.957Z,38.56
2019-05-18T09:56:47.976Z,37.73
2019-05-18T09:57:47.990Z,37.21
2019-05-18T09:58:48.007Z,35.77
2019-05-18T09:59:48.024Z,36.13
2019-05-18T10:00:48.047Z,36.72
2019-05-18T10:01:48.061Z,37.12
2019-05-18T10:02:48.080Z,37.04
2019-05-18T10:03:48.091Z,37.88
2019-05-18T10:04:48.102Z,38.47
2019-05-18T10:05:48.120Z,39.12
2019-05-18T10:06:48.141Z,39.53
2019-05-18T10:07:48.157Z,39.87
2019-05-18T10:08:48.169Z,39.91
2019-05-18T10:09:48.184Z,40.46
2019-05-18T10:10:48.204Z,40.91
2019-05-18T10:11:48.236Z,41.44
2019-05-18T10:12:48.242Z,41.31
2019-05-18T10:13:48.265Z,41.31
2019-05-18T10:14:48.277Z,41.29
2019-05-18T10:15:48.295Z,41.28
2019-05-18T10:16:48.313Z,41.36
2019-05-18T10:17:48.326Z,41.48
2019-05-18T10:18:48.344Z,41.32
2019-05-18T10:19:48.359Z,40.91
2019-05-18T10:20:48.381Z,40.22
2019-05-18T10:21:48.401Z,39.28
2019-05-18T10:22:59.211Z,37.95
2019-05-18T10:23:48.432Z,37.54
2019-05-18T10:24:48.456Z,37.39
2019-05-18T10:25:48.474Z,37.66
2019-05-18T10:26:48.495Z,37.75
2019-05-18T10:27:48.512Z,38.30
2019-05-18T10:28:48.527Z,38.55
2019-05-18T10:29:48.598Z,39.00
2019-05-18T10:30:48.563Z,39.47
2019-05-18T10:31:48.579Z,39.66
2019-05-18T10:32:48.605Z,39.85
2019-05-18T10:33:48.620Z,39.80
2019-05-18T10:34:48.637Z,39.05
2019-05-18T10:35:48.653Z,38.52
2019-05-18T10:36:48.666Z,38.45
2019-05-18T10:37:48.684Z,38.81
2019-05-18T10:38:48.704Z,39.05
2019-05-18T10:39:48.722Z,39.47
2019-05-18T10:40:48.735Z,39.54
2019-05-18T10:41:48.755Z,39.66
2019-05-18T10:42:48.774Z,39.38
2019-05-18T10:43:48.793Z,39.27
2019-05-18T10:44:48.814Z,39.06
2019-05-18T10:45:48.830Z,38.18
2019-05-18T10:46:48.849Z,37.05
2019-05-18T10:47:48.867Z,36.38
2019-05-18T10:48:48.879Z,36.37
2019-05-18T10:49:48.898Z,36.37
2019-05-18T10:50:48.916Z,36.59
2019-05-18T10:51:48.934Z,36.31
2019-05-18T10:52:48.952Z,36.08
2019-05-18T10:53:48.970Z,35.91
2019-05-18T10:54:48.979Z,36.46
2019-05-18T10:55:48.997Z,36.89
2019-05-18T10:56:49.019Z,35.20
2019-05-18T10:57:49.037Z,34.90
2019-05-18T10:58:49.057Z,34.55
2019-05-18T10:59:49.070Z,33.03
2019-05-18T11:00:49.085Z,33.87
2019-05-18T11:01:49.101Z,34.33
2019-05-18T11:02:49.119Z,34.65
2019-05-18T11:03:49.135Z,34.31
2019-05-18T11:04:49.156Z,34.67
2019-05-18T11:05:49.174Z,33.74
2019-05-18T11:06:49.187Z,32.68
2019-05-18T11:07:49.204Z,31.91
2019-05-18T11:08:49.215Z,31.71
2019-05-18T11:09:49.231Z,31.12
2019-05-18T11:10:49.252Z,31.22
2019-05-18T11:11:49.265Z,31.03
2019-05-18T11:12:49.276Z,31.22
2019-05-18T11:13:49.293Z,31.72
2019-05-18T11:14:49.308Z,31.99
2019-05-18T11:15:49.324Z,31.23
2019-05-18T11:16:49.342Z,29.35
2019-05-18T11:17:49.357Z,28.91
2019-05-18T11:18:49.368Z,29.14
2019-05-18T11:19:49.377Z,29.11
2019-05-18T11:20:49.388Z,29.32
2019-05-18T11:21:49.401Z,29.26
2019-05-18T11:22:49.414Z,29.74
2019-05-18T11:23:49.428Z,30.11
2019-05-18T11:24:49.442Z,29.89
2019-05-18T11:25:49.455Z,29.39
2019-05-18T11:26:49.466Z,29.12
2019-05-18T11:27:49.475Z,28.06
2019-05-18T11:28:49.489Z,28.35
2019-05-18T11:29:49.497Z,28.72
2019-05-18T11:30:49.507Z,29.08
2019-05-18T11:31:49.517Z,28.98
2019-05-18T11:32:49.529Z,29.26
2019-05-18T11:33:49.535Z,29.49
2019-05-18T11:34:49.544Z,29.25
2019-05-18T11:35:49.551Z,29.21
2019-05-18T11:36:49.565Z,29.41
2019-05-18T11:37:49.575Z,29.64
2019-05-18T11:38:49.586Z,29.95
2019-05-18T11:39:49.596Z,30.36
2019-05-18T11:40:49.601Z,30.48
2019-05-18T11:41:49.609Z,30.53
2019-05-18T11:42:49.623Z,30.67
2019-05-18T11:43:49.636Z,30.48
2019-05-18T11:44:49.646Z,30.29
2019-05-18T11:45:49.651Z,30.21
2019-05-18T11:46:49.649Z,30.15
2019-05-18T11:47:49.656Z,29.92
2019-05-18T11:48:49.669Z,29.85
2019-05-18T11:49:49.709Z,29.52
2019-05-18T11:50:49.684Z,29.05
2019-05-18T11:51:49.696Z,29.15
2019-05-18T11:52:49.695Z,29.07
2019-05-18T11:53:57.815Z,29.21
2019-05-18T11:54:49.714Z,28.77
2019-05-18T11:55:49.719Z,28.32
2019-05-18T11:56:49.743Z,27.93
2019-05-18T11:57:49.738Z,27.46
2019-05-18T11:58:49.742Z,27.42
2019-05-18T11:59:49.747Z,27.18
2019-05-18T12:00:49.760Z,27.03
2019-05-18T12:01:49.766Z,26.79
2019-05-18T12:02:49.771Z,26.75
2019-05-18T12:03:49.775Z,26.79
2019-05-18T12:04:49.781Z,26.91
2019-05-18T12:05:49.783Z,27.08
2019-05-18T12:06:49.795Z,26.83
2019-05-18T12:07:49.799Z,26.86
2019-05-18T12:08:49.823Z,26.69
2019-05-18T12:09:49.814Z,26.36
2019-05-18T12:10:49.822Z,26.51
2019-05-18T12:11:49.827Z,26.41
2019-05-18T12:12:49.829Z,26.53
2019-05-18T12:13:49.833Z,26.46
2019-05-18T12:14:49.842Z,26.39
2019-05-18T12:15:49.846Z,26.42
2019-05-18T12:16:49.850Z,26.35
2019-05-18T12:17:49.852Z,26.46
2019-05-18T12:18:49.855Z,26.66
2019-05-18T12:19:49.859Z,26.86
2019-05-18T12:20:49.868Z,26.91
2019-05-18T12:21:49.881Z,26.86
2019-05-18T12:22:49.881Z,26.83
2019-05-18T12:23:49.885Z,26.71
2019-05-18T12:24:49.884Z,26.71
2019-05-18T12:25:50.832Z,26.87
2019-05-18T12:26:49.937Z,26.87
2019-05-18T12:27:49.905Z,27.06
2019-05-18T12:28:49.904Z,27.08
2019-05-18T12:29:49.911Z,27.03
2019-05-18T12:30:49.908Z,27.06
2019-05-18T12:31:49.911Z,27.08
2019-05-18T12:32:49.921Z,27.21
2019-05-18T12:33:49.924Z,27.27
2019-05-18T12:34:49.930Z,27.52
2019-05-18T12:35:49.937Z,27.48
2019-05-18T12:36:49.932Z,27.52
2019-05-18T12:37:49.938Z,27.72
2019-05-18T12:38:49.943Z,27.59
2019-05-18T12:39:49.945Z,27.49
2019-05-18T12:40:49.953Z,27.52
2019-05-18T12:41:49.955Z,27.53
2019-05-18T12:42:49.992Z,27.50
2019-05-18T12:43:49.967Z,27.05
2019-05-18T12:44:49.958Z,26.44
2019-05-18T12:45:49.965Z,26.20
2019-05-18T12:46:49.979Z,26.24
2019-05-18T12:47:49.979Z,25.91
2019-05-18T12:48:49.975Z,25.54
2019-05-18T12:49:49.996Z,25.11
2019-05-18T12:50:49.986Z,25.16
2019-05-18T12:51:49.986Z,25.38
2019-05-18T12:52:49.996Z,25.51